sensor_id;sensor_type;location;lat;lon;timestamp;P1;durP1;ratioP1;P2;durP2;ratioP2
23826;SDS011;12094;50.822;4.376;2023-03-21T00:00:57;15.32;;;7.45;;
23826;SDS011;12094;50.822;4.376;2023-03-21T00:03:27;18.33;;;7.60;;
23826;SDS011;12094;50.822;4.376;2023-03-21T00:05:57;20.25;;;8.73;;
23826;SDS011;12094;50.822;4.376;2023-03-21T00:11:05;19.90;;;8.43;;
23826;SDS011;12094;50.822;4.376;2023-03-21T00:13:34;16.92;;;7.20;;
23826;SDS011;12094;50.822;4.376;2023-03-21T00:16:16;18.05;;;7.82;;
23826;SDS011;12094;50.822;4.376;2023-03-21T00:19:07;14.60;;;7.43;;
23826;SDS011;12094;50.822;4.376;2023-03-21T00:24:28;20.33;;;7.53;;
23826;SDS011;12094;50.822;4.376;2023-03-21T00:26:59;17.50;;;7.38;;
23826;SDS011;12094;50.822;4.376;2023-03-21T00:29:48;17.65;;;6.97;;
23826;SDS011;12094;50.822;4.376;2023-03-21T00:32:20;15.38;;;7.22;;
23826;SDS011;12094;50.822;4.376;2023-03-21T00:34:51;21.52;;;6.95;;
23826;SDS011;12094;50.822;4.376;2023-03-21T00:41:52;15.17;;;5.83;;
23826;SDS011;12094;50.822;4.376;2023-03-21T00:44:23;17.80;;;6.40;;
23826;SDS011;12094;50.822;4.376;2023-03-21T00:46:54;13.75;;;6.72;;
23826;SDS011;12094;50.822;4.376;2023-03-21T00:49:33;17.83;;;7.35;;
23826;SDS011;12094;50.822;4.376;2023-03-21T00:52:04;16.48;;;6.57;;
23826;SDS011;12094;50.822;4.376;2023-03-21T00:54:45;17.63;;;5.93;;
23826;SDS011;12094;50.822;4.376;2023-03-21T00:57:16;14.88;;;5.43;;
23826;SDS011;12094;50.822;4.376;2023-03-21T00:59:50;13.80;;;5.90;;
23826;SDS011;12094;50.822;4.376;2023-03-21T01:02:20;14.93;;;6.38;;
23826;SDS011;12094;50.822;4.376;2023-03-21T01:04:49;15.60;;;5.97;;
23826;SDS011;12094;50.822;4.376;2023-03-21T01:07:21;17.58;;;6.38;;
23826;SDS011;12094;50.822;4.376;2023-03-21T01:12:21;18.60;;;5.82;;
23826;SDS011;12094;50.822;4.376;2023-03-21T01:14:50;15.38;;;5.82;;
23826;SDS011;12094;50.822;4.376;2023-03-21T01:19:47;15.15;;;5.63;;
23826;SDS011;12094;50.822;4.376;2023-03-21T01:22:27;16.42;;;5.88;;
23826;SDS011;12094;50.822;4.376;2023-03-21T01:24:54;16.08;;;6.25;;
23826;SDS011;12094;50.822;4.376;2023-03-21T01:27:41;21.38;;;6.13;;
23826;SDS011;12094;50.822;4.376;2023-03-21T01:30:13;14.65;;;6.25;;
23826;SDS011;12094;50.822;4.376;2023-03-21T01:32:54;18.75;;;6.30;;
23826;SDS011;12094;50.822;4.376;2023-03-21T01:35:24;18.67;;;6.25;;
23826;SDS011;12094;50.822;4.376;2023-03-21T01:38:06;17.83;;;6.07;;
23826;SDS011;12094;50.822;4.376;2023-03-21T01:40:38;19.67;;;6.30;;
23826;SDS011;12094;50.822;4.376;2023-03-21T01:49:50;22.65;;;6.20;;
23826;SDS011;12094;50.822;4.376;2023-03-21T01:52:33;19.42;;;5.75;;
23826;SDS011;12094;50.822;4.376;2023-03-21T01:58:06;15.45;;;5.63;;
23826;SDS011;12094;50.822;4.376;2023-03-21T02:00:46;18.33;;;6.30;;
23826;SDS011;12094;50.822;4.376;2023-03-21T02:03:27;14.32;;;5.47;;
23826;SDS011;12094;50.822;4.376;2023-03-21T02:06:29;17.17;;;6.78;;
23826;SDS011;12094;50.822;4.376;2023-03-21T02:09:11;15.50;;;5.10;;
23826;SDS011;12094;50.822;4.376;2023-03-21T02:11:47;16.75;;;5.60;;
23826;SDS011;12094;50.822;4.376;2023-03-21T02:14:19;17.10;;;6.10;;
23826;SDS011;12094;50.822;4.376;2023-03-21T02:17:22;19.38;;;6.28;;
23826;SDS011;12094;50.822;4.376;2023-03-21T02:23:40;12.57;;;4.85;;
23826;SDS011;12094;50.822;4.376;2023-03-21T02:38:25;11.20;;;4.05;;
23826;SDS011;12094;50.822;4.376;2023-03-21T02:43:42;8.73;;;3.80;;
23826;SDS011;12094;50.822;4.376;2023-03-21T02:46:16;14.23;;;4.40;;
23826;SDS011;12094;50.822;4.376;2023-03-21T02:49:00;10.95;;;3.80;;
23826;SDS011;12094;50.822;4.376;2023-03-21T02:51:34;12.05;;;4.00;;
23826;SDS011;12094;50.822;4.376;2023-03-21T02:54:09;13.52;;;4.32;;
23826;SDS011;12094;50.822;4.376;2023-03-21T02:57:04;19.60;;;5.47;;
23826;SDS011;12094;50.822;4.376;2023-03-21T02:59:32;13.15;;;4.43;;
23826;SDS011;12094;50.822;4.376;2023-03-21T03:02:15;18.80;;;4.93;;
23826;SDS011;12094;50.822;4.376;2023-03-21T03:04:48;12.93;;;4.53;;
23826;SDS011;12094;50.822;4.376;2023-03-21T03:12:44;10.00;;;4.05;;
23826;SDS011;12094;50.822;4.376;2023-03-21T03:18:19;13.57;;;3.67;;
23826;SDS011;12094;50.822;4.376;2023-03-21T03:24:15;12.00;;;3.45;;
23826;SDS011;12094;50.822;4.376;2023-03-21T03:27:10;13.18;;;3.90;;
23826;SDS011;12094;50.822;4.376;2023-03-21T03:29:44;17.35;;;4.40;;
23826;SDS011;12094;50.822;4.376;2023-03-21T03:32:22;17.40;;;4.25;;
23826;SDS011;12094;50.822;4.376;2023-03-21T03:34:55;12.50;;;4.18;;
23826;SDS011;12094;50.822;4.376;2023-03-21T03:37:32;11.50;;;4.65;;
23826;SDS011;12094;50.822;4.376;2023-03-21T03:43:00;15.88;;;4.50;;
23826;SDS011;12094;50.822;4.376;2023-03-21T03:48:33;14.60;;;4.93;;
23826;SDS011;12094;50.822;4.376;2023-03-21T03:51:18;14.60;;;5.03;;
23826;SDS011;12094;50.822;4.376;2023-03-21T03:54:31;21.65;;;5.53;;
23826;SDS011;12094;50.822;4.376;2023-03-21T03:57:06;14.32;;;5.30;;
23826;SDS011;12094;50.822;4.376;2023-03-21T03:59:35;20.40;;;5.25;;
23826;SDS011;12094;50.822;4.376;2023-03-21T04:02:27;12.70;;;4.82;;
23826;SDS011;12094;50.822;4.376;2023-03-21T04:05:00;15.32;;;5.63;;
23826;SDS011;12094;50.822;4.376;2023-03-21T04:07:31;17.27;;;5.88;;
23826;SDS011;12094;50.822;4.376;2023-03-21T04:10:02;19.13;;;6.47;;
23826;SDS011;12094;50.822;4.376;2023-03-21T04:12:38;17.30;;;5.10;;
23826;SDS011;12094;50.822;4.376;2023-03-21T04:15:20;21.92;;;8.50;;
23826;SDS011;12094;50.822;4.376;2023-03-21T04:17:58;15.82;;;6.95;;
23826;SDS011;12094;50.822;4.376;2023-03-21T04:20:29;16.10;;;6.38;;
23826;SDS011;12094;50.822;4.376;2023-03-21T04:23:04;19.45;;;6.53;;
23826;SDS011;12094;50.822;4.376;2023-03-21T04:25:32;13.95;;;5.18;;
23826;SDS011;12094;50.822;4.376;2023-03-21T04:31:17;23.48;;;7.05;;
23826;SDS011;12094;50.822;4.376;2023-03-21T04:34:00;15.70;;;6.22;;
23826;SDS011;12094;50.822;4.376;2023-03-21T04:36:29;21.40;;;6.57;;
23826;SDS011;12094;50.822;4.376;2023-03-21T04:42:41;17.75;;;7.22;;
23826;SDS011;12094;50.822;4.376;2023-03-21T04:45:14;18.02;;;6.72;;
23826;SDS011;12094;50.822;4.376;2023-03-21T04:47:46;14.13;;;6.82;;
23826;SDS011;12094;50.822;4.376;2023-03-21T04:50:17;22.08;;;8.07;;
23826;SDS011;12094;50.822;4.376;2023-03-21T04:52:47;22.67;;;7.68;;
23826;SDS011;12094;50.822;4.376;2023-03-21T04:55:16;23.50;;;7.72;;
23826;SDS011;12094;50.822;4.376;2023-03-21T04:57:49;16.27;;;6.75;;
23826;SDS011;12094;50.822;4.376;2023-03-21T05:00:26;21.42;;;7.32;;
23826;SDS011;12094;50.822;4.376;2023-03-21T05:02:54;20.77;;;7.28;;
23826;SDS011;12094;50.822;4.376;2023-03-21T05:05:41;19.27;;;6.75;;
23826;SDS011;12094;50.822;4.376;2023-03-21T05:08:10;15.25;;;6.88;;
23826;SDS011;12094;50.822;4.376;2023-03-21T05:10:38;25.75;;;7.32;;
23826;SDS011;12094;50.822;4.376;2023-03-21T05:13:09;18.48;;;7.43;;
23826;SDS011;12094;50.822;4.376;2023-03-21T05:15:43;22.13;;;8.20;;
23826;SDS011;12094;50.822;4.376;2023-03-21T05:18:12;19.13;;;7.75;;
23826;SDS011;12094;50.822;4.376;2023-03-21T05:21:00;16.52;;;6.85;;
23826;SDS011;12094;50.822;4.376;2023-03-21T05:23:30;21.60;;;7.25;;
23826;SDS011;12094;50.822;4.376;2023-03-21T05:26:05;20.67;;;7.60;;
23826;SDS011;12094;50.822;4.376;2023-03-21T05:28:52;14.68;;;6.75;;
23826;SDS011;12094;50.822;4.376;2023-03-21T05:31:20;21.48;;;8.20;;
23826;SDS011;12094;50.822;4.376;2023-03-21T05:34:00;19.67;;;7.38;;
23826;SDS011;12094;50.822;4.376;2023-03-21T05:36:34;19.33;;;7.22;;
23826;SDS011;12094;50.822;4.376;2023-03-21T05:42:01;16.90;;;7.53;;
23826;SDS011;12094;50.822;4.376;2023-03-21T05:48:42;16.73;;;5.38;;
23826;SDS011;12094;50.822;4.376;2023-03-21T05:53:46;19.08;;;6.72;;
23826;SDS011;12094;50.822;4.376;2023-03-21T05:56:17;17.98;;;6.82;;
23826;SDS011;12094;50.822;4.376;2023-03-21T05:59:00;16.70;;;7.57;;
23826;SDS011;12094;50.822;4.376;2023-03-21T06:01:31;24.35;;;7.88;;
23826;SDS011;12094;50.822;4.376;2023-03-21T06:04:11;12.63;;;6.47;;
23826;SDS011;12094;50.822;4.376;2023-03-21T06:06:40;16.05;;;6.18;;
23826;SDS011;12094;50.822;4.376;2023-03-21T06:09:08;14.93;;;6.10;;
23826;SDS011;12094;50.822;4.376;2023-03-21T06:11:40;13.10;;;6.75;;
23826;SDS011;12094;50.822;4.376;2023-03-21T06:17:30;16.90;;;6.93;;
23826;SDS011;12094;50.822;4.376;2023-03-21T06:20:03;18.02;;;7.32;;
23826;SDS011;12094;50.822;4.376;2023-03-21T06:22:43;18.83;;;7.60;;
23826;SDS011;12094;50.822;4.376;2023-03-21T06:27:43;20.75;;;6.68;;
23826;SDS011;12094;50.822;4.376;2023-03-21T06:30:11;19.60;;;7.13;;
23826;SDS011;12094;50.822;4.376;2023-03-21T06:32:50;17.20;;;6.85;;
23826;SDS011;12094;50.822;4.376;2023-03-21T06:40:37;17.58;;;7.05;;
23826;SDS011;12094;50.822;4.376;2023-03-21T06:43:07;18.23;;;6.13;;
23826;SDS011;12094;50.822;4.376;2023-03-21T06:45:35;16.33;;;5.88;;
23826;SDS011;12094;50.822;4.376;2023-03-21T06:48:04;16.10;;;5.90;;
23826;SDS011;12094;50.822;4.376;2023-03-21T06:50:47;18.35;;;6.70;;
23826;SDS011;12094;50.822;4.376;2023-03-21T06:53:18;18.95;;;6.43;;
23826;SDS011;12094;50.822;4.376;2023-03-21T06:56:08;16.25;;;6.20;;
23826;SDS011;12094;50.822;4.376;2023-03-21T06:58:39;17.33;;;7.30;;
23826;SDS011;12094;50.822;4.376;2023-03-21T07:01:14;12.18;;;5.65;;
23826;SDS011;12094;50.822;4.376;2023-03-21T07:03:56;16.98;;;5.85;;
23826;SDS011;12094;50.822;4.376;2023-03-21T07:06:27;18.60;;;5.47;;
23826;SDS011;12094;50.822;4.376;2023-03-21T07:08:55;14.13;;;5.60;;
23826;SDS011;12094;50.822;4.376;2023-03-21T07:11:25;11.48;;;4.90;;
23826;SDS011;12094;50.822;4.376;2023-03-21T07:13:57;13.15;;;4.70;;
23826;SDS011;12094;50.822;4.376;2023-03-21T07:16:32;10.40;;;4.68;;
23826;SDS011;12094;50.822;4.376;2023-03-21T07:24:35;14.68;;;4.93;;
23826;SDS011;12094;50.822;4.376;2023-03-21T07:27:03;11.23;;;4.03;;
23826;SDS011;12094;50.822;4.376;2023-03-21T07:29:33;7.28;;;3.17;;
23826;SDS011;12094;50.822;4.376;2023-03-21T07:32:01;12.82;;;4.20;;
23826;SDS011;12094;50.822;4.376;2023-03-21T07:34:28;11.00;;;3.85;;
23826;SDS011;12094;50.822;4.376;2023-03-21T07:37:03;4.95;;;2.58;;
23826;SDS011;12094;50.822;4.376;2023-03-21T07:39:33;10.60;;;3.30;;
23826;SDS011;12094;50.822;4.376;2023-03-21T07:42:02;11.15;;;3.53;;
23826;SDS011;12094;50.822;4.376;2023-03-21T07:44:36;10.32;;;3.40;;
23826;SDS011;12094;50.822;4.376;2023-03-21T07:47:04;8.90;;;3.33;;
23826;SDS011;12094;50.822;4.376;2023-03-21T07:49:32;5.28;;;2.67;;
23826;SDS011;12094;50.822;4.376;2023-03-21T07:52:04;7.78;;;3.20;;
23826;SDS011;12094;50.822;4.376;2023-03-21T07:54:34;11.30;;;3.85;;
23826;SDS011;12094;50.822;4.376;2023-03-21T07:57:01;10.88;;;2.78;;
23826;SDS011;12094;50.822;4.376;2023-03-21T07:59:29;9.48;;;3.55;;
23826;SDS011;12094;50.822;4.376;2023-03-21T08:01:56;10.82;;;3.88;;
23826;SDS011;12094;50.822;4.376;2023-03-21T08:04:24;14.50;;;4.05;;
23826;SDS011;12094;50.822;4.376;2023-03-21T08:06:52;12.20;;;4.18;;
23826;SDS011;12094;50.822;4.376;2023-03-21T08:09:20;12.27;;;5.22;;
23826;SDS011;12094;50.822;4.376;2023-03-21T08:11:47;9.77;;;4.20;;
23826;SDS011;12094;50.822;4.376;2023-03-21T08:14:14;10.45;;;4.13;;
23826;SDS011;12094;50.822;4.376;2023-03-21T08:16:44;12.40;;;4.28;;
23826;SDS011;12094;50.822;4.376;2023-03-21T08:19:12;11.50;;;4.25;;
23826;SDS011;12094;50.822;4.376;2023-03-21T08:21:49;12.73;;;4.63;;
23826;SDS011;12094;50.822;4.376;2023-03-21T08:24:19;12.40;;;4.07;;
23826;SDS011;12094;50.822;4.376;2023-03-21T08:29:43;14.43;;;4.17;;
23826;SDS011;12094;50.822;4.376;2023-03-21T08:32:12;10.27;;;3.90;;
23826;SDS011;12094;50.822;4.376;2023-03-21T08:34:40;14.48;;;5.13;;
23826;SDS011;12094;50.822;4.376;2023-03-21T08:37:08;11.82;;;4.43;;
23826;SDS011;12094;50.822;4.376;2023-03-21T08:39:35;13.57;;;4.65;;
23826;SDS011;12094;50.822;4.376;2023-03-21T08:42:02;12.95;;;4.72;;
23826;SDS011;12094;50.822;4.376;2023-03-21T08:44:36;19.92;;;5.38;;
23826;SDS011;12094;50.822;4.376;2023-03-21T08:47:08;9.90;;;4.32;;
23826;SDS011;12094;50.822;4.376;2023-03-21T08:49:36;14.65;;;4.72;;
23826;SDS011;12094;50.822;4.376;2023-03-21T08:54:35;12.80;;;4.70;;
23826;SDS011;12094;50.822;4.376;2023-03-21T08:57:05;8.70;;;2.92;;
23826;SDS011;12094;50.822;4.376;2023-03-21T08:59:40;10.00;;;3.95;;
23826;SDS011;12094;50.822;4.376;2023-03-21T09:02:14;21.77;;;4.22;;
23826;SDS011;12094;50.822;4.376;2023-03-21T09:04:52;12.65;;;3.88;;
23826;SDS011;12094;50.822;4.376;2023-03-21T09:07:20;11.10;;;4.55;;
23826;SDS011;12094;50.822;4.376;2023-03-21T09:09:52;14.60;;;4.25;;
23826;SDS011;12094;50.822;4.376;2023-03-21T09:12:46;12.90;;;3.67;;
23826;SDS011;12094;50.822;4.376;2023-03-21T09:18:31;11.52;;;3.08;;
23826;SDS011;12094;50.822;4.376;2023-03-21T09:21:35;12.93;;;3.67;;
23826;SDS011;12094;50.822;4.376;2023-03-21T09:24:03;20.40;;;4.78;;
23826;SDS011;12094;50.822;4.376;2023-03-21T09:26:35;10.38;;;3.00;;
23826;SDS011;12094;50.822;4.376;2023-03-21T09:29:11;11.80;;;4.25;;
23826;SDS011;12094;50.822;4.376;2023-03-21T09:31:39;7.57;;;3.65;;
23826;SDS011;12094;50.822;4.376;2023-03-21T09:34:10;14.68;;;3.67;;
23826;SDS011;12094;50.822;4.376;2023-03-21T09:36:39;10.13;;;3.70;;
23826;SDS011;12094;50.822;4.376;2023-03-21T09:39:10;13.20;;;4.07;;
23826;SDS011;12094;50.822;4.376;2023-03-21T09:41:50;13.90;;;4.20;;
23826;SDS011;12094;50.822;4.376;2023-03-21T09:44:58;11.05;;;3.03;;
23826;SDS011;12094;50.822;4.376;2023-03-21T09:47:40;15.25;;;4.05;;
23826;SDS011;12094;50.822;4.376;2023-03-21T09:50:28;14.13;;;3.10;;
23826;SDS011;12094;50.822;4.376;2023-03-21T09:52:59;11.68;;;4.22;;
23826;SDS011;12094;50.822;4.376;2023-03-21T09:55:41;20.02;;;4.68;;
23826;SDS011;12094;50.822;4.376;2023-03-21T09:58:27;12.95;;;4.13;;
23826;SDS011;12094;50.822;4.376;2023-03-21T10:01:27;8.82;;;4.05;;
23826;SDS011;12094;50.822;4.376;2023-03-21T10:04:05;12.07;;;4.13;;
23826;SDS011;12094;50.822;4.376;2023-03-21T10:06:38;11.80;;;3.75;;
23826;SDS011;12094;50.822;4.376;2023-03-21T10:09:13;14.15;;;4.03;;
23826;SDS011;12094;50.822;4.376;2023-03-21T10:11:57;10.90;;;3.47;;
23826;SDS011;12094;50.822;4.376;2023-03-21T10:14:43;10.68;;;3.85;;
23826;SDS011;12094;50.822;4.376;2023-03-21T10:22:37;15.00;;;5.10;;
23826;SDS011;12094;50.822;4.376;2023-03-21T10:25:15;10.70;;;3.90;;
23826;SDS011;12094;50.822;4.376;2023-03-21T10:27:53;10.82;;;3.70;;
23826;SDS011;12094;50.822;4.376;2023-03-21T10:33:11;8.45;;;3.45;;
23826;SDS011;12094;50.822;4.376;2023-03-21T10:35:44;9.13;;;3.80;;
23826;SDS011;12094;50.822;4.376;2023-03-21T10:38:18;10.52;;;3.88;;
23826;SDS011;12094;50.822;4.376;2023-03-21T10:40:49;11.43;;;3.80;;
23826;SDS011;12094;50.822;4.376;2023-03-21T10:45:55;12.70;;;3.75;;
23826;SDS011;12094;50.822;4.376;2023-03-21T10:48:25;9.57;;;3.88;;
23826;SDS011;12094;50.822;4.376;2023-03-21T10:51:00;9.35;;;3.67;;
23826;SDS011;12094;50.822;4.376;2023-03-21T10:53:30;9.82;;;3.42;;
23826;SDS011;12094;50.822;4.376;2023-03-21T10:56:00;8.35;;;3.67;;
23826;SDS011;12094;50.822;4.376;2023-03-21T10:58:34;12.77;;;3.80;;
23826;SDS011;12094;50.822;4.376;2023-03-21T11:01:06;12.57;;;4.57;;
23826;SDS011;12094;50.822;4.376;2023-03-21T11:03:45;10.50;;;4.22;;
23826;SDS011;12094;50.822;4.376;2023-03-21T11:08:52;9.75;;;4.32;;
23826;SDS011;12094;50.822;4.376;2023-03-21T11:11:27;8.35;;;4.50;;
23826;SDS011;12094;50.822;4.376;2023-03-21T11:14:42;11.27;;;5.13;;
23826;SDS011;12094;50.822;4.376;2023-03-21T11:19:59;10.18;;;5.00;;
23826;SDS011;12094;50.822;4.376;2023-03-21T11:22:38;14.07;;;5.07;;
23826;SDS011;12094;50.822;4.376;2023-03-21T11:25:54;9.38;;;4.28;;
23826;SDS011;12094;50.822;4.376;2023-03-21T11:28:15;15.52;;;5.40;;
23826;SDS011;12094;50.822;4.376;2023-03-21T11:30:59;14.30;;;5.00;;
23826;SDS011;12094;50.822;4.376;2023-03-21T11:33:35;11.95;;;5.53;;
23826;SDS011;12094;50.822;4.376;2023-03-21T11:39:14;13.85;;;4.78;;
23826;SDS011;12094;50.822;4.376;2023-03-21T11:42:29;12.05;;;4.90;;
23826;SDS011;12094;50.822;4.376;2023-03-21T11:45:41;10.80;;;5.18;;
23826;SDS011;12094;50.822;4.376;2023-03-21T11:48:12;12.43;;;5.13;;
23826;SDS011;12094;50.822;4.376;2023-03-21T11:50:44;11.55;;;4.63;;
23826;SDS011;12094;50.822;4.376;2023-03-21T11:53:29;13.93;;;4.20;;
23826;SDS011;12094;50.822;4.376;2023-03-21T12:02:02;10.32;;;3.53;;
23826;SDS011;12094;50.822;4.376;2023-03-21T12:25:20;12.70;;;4.82;;
23826;SDS011;12094;50.822;4.376;2023-03-21T12:34:52;10.77;;;4.78;;
23826;SDS011;12094;50.822;4.376;2023-03-21T12:48:54;16.02;;;5.32;;
23826;SDS011;12094;50.822;4.376;2023-03-21T12:51:29;13.05;;;5.70;;
23826;SDS011;12094;50.822;4.376;2023-03-21T12:54:08;13.43;;;5.20;;
23826;SDS011;12094;50.822;4.376;2023-03-21T12:57:07;11.68;;;5.25;;
23826;SDS011;12094;50.822;4.376;2023-03-21T12:59:38;14.60;;;4.00;;
23826;SDS011;12094;50.822;4.376;2023-03-21T13:02:29;9.57;;;4.30;;
23826;SDS011;12094;50.822;4.376;2023-03-21T13:05:30;10.98;;;5.20;;
23826;SDS011;12094;50.822;4.376;2023-03-21T13:08:06;15.43;;;5.27;;
23826;SDS011;12094;50.822;4.376;2023-03-21T13:10:39;8.50;;;4.47;;
23826;SDS011;12094;50.822;4.376;2023-03-21T13:13:23;9.18;;;4.70;;
23826;SDS011;12094;50.822;4.376;2023-03-21T13:16:27;9.00;;;4.30;;
23826;SDS011;12094;50.822;4.376;2023-03-21T13:22:06;10.15;;;4.78;;
23826;SDS011;12094;50.822;4.376;2023-03-21T13:24:58;8.07;;;4.25;;
23826;SDS011;12094;50.822;4.376;2023-03-21T13:27:33;9.38;;;5.28;;
23826;SDS011;12094;50.822;4.376;2023-03-21T13:33:04;9.30;;;4.13;;
23826;SDS011;12094;50.822;4.376;2023-03-21T13:38:13;12.10;;;4.85;;
23826;SDS011;12094;50.822;4.376;2023-03-21T13:43:44;9.95;;;4.03;;
23826;SDS011;12094;50.822;4.376;2023-03-21T13:51:44;7.72;;;3.83;;
23826;SDS011;12094;50.822;4.376;2023-03-21T14:08:44;14.07;;;4.10;;
23826;SDS011;12094;50.822;4.376;2023-03-21T14:14:13;10.43;;;4.20;;
23826;SDS011;12094;50.822;4.376;2023-03-21T14:16:41;10.93;;;4.78;;
23826;SDS011;12094;50.822;4.376;2023-03-21T14:19:10;10.18;;;4.88;;
23826;SDS011;12094;50.822;4.376;2023-03-21T14:21:44;10.43;;;5.18;;
23826;SDS011;12094;50.822;4.376;2023-03-21T14:26:51;18.63;;;5.85;;
23826;SDS011;12094;50.822;4.376;2023-03-21T14:29:30;12.50;;;5.50;;
23826;SDS011;12094;50.822;4.376;2023-03-21T14:32:00;14.25;;;6.00;;
23826;SDS011;12094;50.822;4.376;2023-03-21T14:34:30;9.27;;;5.65;;
23826;SDS011;12094;50.822;4.376;2023-03-21T14:37:05;6.67;;;5.03;;
23826;SDS011;12094;50.822;4.376;2023-03-21T14:39:36;9.82;;;5.43;;
23826;SDS011;12094;50.822;4.376;2023-03-21T14:42:06;11.85;;;6.05;;
23826;SDS011;12094;50.822;4.376;2023-03-21T14:47:23;11.73;;;5.30;;
23826;SDS011;12094;50.822;4.376;2023-03-21T14:49:58;13.80;;;5.75;;
23826;SDS011;12094;50.822;4.376;2023-03-21T14:52:30;10.95;;;5.97;;
23826;SDS011;12094;50.822;4.376;2023-03-21T14:55:01;12.45;;;5.82;;
23826;SDS011;12094;50.822;4.376;2023-03-21T14:57:43;11.63;;;5.55;;
23826;SDS011;12094;50.822;4.376;2023-03-21T15:00:13;11.45;;;5.45;;
23826;SDS011;12094;50.822;4.376;2023-03-21T15:02:54;10.25;;;5.95;;
23826;SDS011;12094;50.822;4.376;2023-03-21T15:05:35;14.32;;;6.40;;
23826;SDS011;12094;50.822;4.376;2023-03-21T15:08:07;15.68;;;6.22;;
23826;SDS011;12094;50.822;4.376;2023-03-21T15:13:35;14.13;;;6.47;;
23826;SDS011;12094;50.822;4.376;2023-03-21T15:16:20;12.38;;;6.00;;
23826;SDS011;12094;50.822;4.376;2023-03-21T15:18:51;14.00;;;6.03;;
23826;SDS011;12094;50.822;4.376;2023-03-21T15:21:22;10.15;;;5.72;;
23826;SDS011;12094;50.822;4.376;2023-03-21T15:24:20;10.70;;;6.75;;
23826;SDS011;12094;50.822;4.376;2023-03-21T15:26:54;10.63;;;6.25;;
23826;SDS011;12094;50.822;4.376;2023-03-21T15:29:42;9.13;;;6.28;;
23826;SDS011;12094;50.822;4.376;2023-03-21T15:35:07;9.85;;;5.70;;
23826;SDS011;12094;50.822;4.376;2023-03-21T15:37:41;8.27;;;6.25;;
23826;SDS011;12094;50.822;4.376;2023-03-21T15:40:19;11.80;;;5.85;;
23826;SDS011;12094;50.822;4.376;2023-03-21T15:43:02;11.25;;;5.85;;
23826;SDS011;12094;50.822;4.376;2023-03-21T15:45:44;12.88;;;6.65;;
23826;SDS011;12094;50.822;4.376;2023-03-21T15:48:13;11.13;;;6.70;;
23826;SDS011;12094;50.822;4.376;2023-03-21T15:50:50;9.75;;;6.30;;
23826;SDS011;12094;50.822;4.376;2023-03-21T15:53:24;10.50;;;7.70;;
23826;SDS011;12094;50.822;4.376;2023-03-21T15:55:56;12.77;;;8.25;;
23826;SDS011;12094;50.822;4.376;2023-03-21T15:58:33;12.57;;;7.93;;
23826;SDS011;12094;50.822;4.376;2023-03-21T16:01:11;13.65;;;8.43;;
23826;SDS011;12094;50.822;4.376;2023-03-21T16:03:56;11.27;;;8.67;;
23826;SDS011;12094;50.822;4.376;2023-03-21T16:06:28;15.57;;;9.23;;
23826;SDS011;12094;50.822;4.376;2023-03-21T16:11:38;15.95;;;8.88;;
23826;SDS011;12094;50.822;4.376;2023-03-21T16:14:12;14.52;;;7.95;;
23826;SDS011;12094;50.822;4.376;2023-03-21T16:16:42;14.00;;;8.80;;
23826;SDS011;12094;50.822;4.376;2023-03-21T16:19:12;17.02;;;9.23;;
23826;SDS011;12094;50.822;4.376;2023-03-21T16:21:39;13.27;;;9.63;;
23826;SDS011;12094;50.822;4.376;2023-03-21T16:24:10;14.48;;;9.70;;
23826;SDS011;12094;50.822;4.376;2023-03-21T16:26:45;16.08;;;10.55;;
23826;SDS011;12094;50.822;4.376;2023-03-21T16:29:17;14.18;;;9.20;;
23826;SDS011;12094;50.822;4.376;2023-03-21T16:31:46;18.38;;;10.45;;
23826;SDS011;12094;50.822;4.376;2023-03-21T16:34:14;13.75;;;7.63;;
23826;SDS011;12094;50.822;4.376;2023-03-21T16:36:50;15.82;;;8.73;;
23826;SDS011;12094;50.822;4.376;2023-03-21T16:41:47;12.52;;;8.35;;
23826;SDS011;12094;50.822;4.376;2023-03-21T16:44:17;16.73;;;8.73;;
23826;SDS011;12094;50.822;4.376;2023-03-21T16:46:45;13.70;;;8.20;;
23826;SDS011;12094;50.822;4.376;2023-03-21T16:49:19;11.70;;;7.13;;
23826;SDS011;12094;50.822;4.376;2023-03-21T16:51:55;14.05;;;7.80;;
23826;SDS011;12094;50.822;4.376;2023-03-21T16:54:25;15.73;;;7.78;;
23826;SDS011;12094;50.822;4.376;2023-03-21T16:56:57;10.73;;;6.88;;
23826;SDS011;12094;50.822;4.376;2023-03-21T16:59:25;9.60;;;6.55;;
23826;SDS011;12094;50.822;4.376;2023-03-21T17:01:52;12.85;;;6.53;;
23826;SDS011;12094;50.822;4.376;2023-03-21T17:04:25;11.25;;;6.93;;
23826;SDS011;12094;50.822;4.376;2023-03-21T17:06:54;10.25;;;6.70;;
23826;SDS011;12094;50.822;4.376;2023-03-21T17:09:25;9.70;;;6.88;;
23826;SDS011;12094;50.822;4.376;2023-03-21T17:11:54;12.98;;;7.15;;
23826;SDS011;12094;50.822;4.376;2023-03-21T17:14:23;11.48;;;7.18;;
23826;SDS011;12094;50.822;4.376;2023-03-21T17:16:50;14.85;;;7.90;;
23826;SDS011;12094;50.822;4.376;2023-03-21T17:21:55;13.10;;;7.72;;
23826;SDS011;12094;50.822;4.376;2023-03-21T17:24:24;13.98;;;6.95;;
23826;SDS011;12094;50.822;4.376;2023-03-21T17:26:53;20.25;;;9.90;;
23826;SDS011;12094;50.822;4.376;2023-03-21T17:29:20;19.70;;;10.23;;
23826;SDS011;12094;50.822;4.376;2023-03-21T17:31:49;17.60;;;9.55;;
23826;SDS011;12094;50.822;4.376;2023-03-21T17:34:18;21.15;;;11.40;;
23826;SDS011;12094;50.822;4.376;2023-03-21T17:36:49;24.27;;;12.32;;
23826;SDS011;12094;50.822;4.376;2023-03-21T17:39:23;24.52;;;13.85;;
23826;SDS011;12094;50.822;4.376;2023-03-21T17:41:52;27.50;;;14.35;;
23826;SDS011;12094;50.822;4.376;2023-03-21T17:44:22;30.13;;;15.55;;
23826;SDS011;12094;50.822;4.376;2023-03-21T17:49:22;31.90;;;16.15;;
23826;SDS011;12094;50.822;4.376;2023-03-21T17:51:50;34.50;;;15.40;;
23826;SDS011;12094;50.822;4.376;2023-03-21T17:54:18;23.85;;;12.98;;
23826;SDS011;12094;50.822;4.376;2023-03-21T17:56:47;24.77;;;12.63;;
23826;SDS011;12094;50.822;4.376;2023-03-21T17:59:14;22.52;;;11.68;;
23826;SDS011;12094;50.822;4.376;2023-03-21T18:01:42;16.95;;;10.68;;
23826;SDS011;12094;50.822;4.376;2023-03-21T18:04:09;17.95;;;10.80;;
23826;SDS011;12094;50.822;4.376;2023-03-21T18:06:37;19.25;;;11.07;;
23826;SDS011;12094;50.822;4.376;2023-03-21T18:09:16;14.93;;;8.52;;
23826;SDS011;12094;50.822;4.376;2023-03-21T18:11:49;11.45;;;7.32;;
23826;SDS011;12094;50.822;4.376;2023-03-21T18:14:17;13.73;;;8.10;;
23826;SDS011;12094;50.822;4.376;2023-03-21T18:16:55;13.32;;;7.38;;
23826;SDS011;12094;50.822;4.376;2023-03-21T18:19:26;13.48;;;7.35;;
23826;SDS011;12094;50.822;4.376;2023-03-21T18:21:57;11.70;;;7.05;;
23826;SDS011;12094;50.822;4.376;2023-03-21T18:24:24;10.95;;;6.20;;
23826;SDS011;12094;50.822;4.376;2023-03-21T18:26:54;12.63;;;6.90;;
23826;SDS011;12094;50.822;4.376;2023-03-21T18:29:21;11.05;;;6.53;;
23826;SDS011;12094;50.822;4.376;2023-03-21T18:32:09;12.40;;;6.40;;
23826;SDS011;12094;50.822;4.376;2023-03-21T18:34:38;9.93;;;6.57;;
23826;SDS011;12094;50.822;4.376;2023-03-21T18:37:08;10.27;;;6.68;;
23826;SDS011;12094;50.822;4.376;2023-03-21T18:39:40;12.65;;;6.45;;
23826;SDS011;12094;50.822;4.376;2023-03-21T18:42:13;14.50;;;7.15;;
23826;SDS011;12094;50.822;4.376;2023-03-21T18:44:48;8.75;;;5.90;;
23826;SDS011;12094;50.822;4.376;2023-03-21T18:47:20;8.82;;;5.97;;
23826;SDS011;12094;50.822;4.376;2023-03-21T18:49:47;10.25;;;6.00;;
23826;SDS011;12094;50.822;4.376;2023-03-21T18:52:35;12.52;;;5.93;;
23826;SDS011;12094;50.822;4.376;2023-03-21T18:55:05;12.05;;;6.05;;
23826;SDS011;12094;50.822;4.376;2023-03-21T18:57:32;9.77;;;6.40;;
23826;SDS011;12094;50.822;4.376;2023-03-21T19:00:04;9.85;;;6.57;;
23826;SDS011;12094;50.822;4.376;2023-03-21T19:02:39;10.07;;;5.25;;